Terminal Aerodrome Forecast
Issued by NWS Sterling, VA

Current Version | Previous Version | Text Only | Print | Product List | Glossary On
Versions: 1 2 3 4 5 6 7 8 9 10 11 12
000
FTUS41 KLWX 291700
TAFCHO
TAF
KCHO 291735Z 2918/3018 28005KT P6SM OVC050
     FM292300 00000KT P6SM BKN110
     FM300900 00000KT P6SM SCT250=

USA.gov is the U.S. government's official web portal to all federal, state and local government web resources and services.